sensor_id;sensor_type;location;lat;lon;timestamp;P1;durP1;ratioP1;P2;durP2;ratioP2
15667;SDS011;7934;48.710;9.024;2023-04-07T00:01:04;13.70;;;11.20;;
15667;SDS011;7934;48.710;9.024;2023-04-07T00:03:31;12.23;;;10.83;;
15667;SDS011;7934;48.710;9.024;2023-04-07T00:06:00;12.90;;;11.23;;
15667;SDS011;7934;48.710;9.024;2023-04-07T00:08:28;15.57;;;11.77;;
15667;SDS011;7934;48.710;9.024;2023-04-07T00:10:55;15.02;;;11.73;;
15667;SDS011;7934;48.710;9.024;2023-04-07T00:13:22;11.90;;;10.70;;
15667;SDS011;7934;48.710;9.024;2023-04-07T00:15:50;13.80;;;11.82;;
15667;SDS011;7934;48.710;9.024;2023-04-07T00:18:17;12.65;;;11.35;;
15667;SDS011;7934;48.710;9.024;2023-04-07T00:20:44;13.10;;;11.70;;
15667;SDS011;7934;48.710;9.024;2023-04-07T00:23:12;13.80;;;11.38;;
15667;SDS011;7934;48.710;9.024;2023-04-07T00:25:40;13.45;;;11.88;;
15667;SDS011;7934;48.710;9.024;2023-04-07T00:28:07;13.52;;;11.88;;
15667;SDS011;7934;48.710;9.024;2023-04-07T00:30:34;15.23;;;12.32;;
15667;SDS011;7934;48.710;9.024;2023-04-07T00:33:01;14.33;;;11.93;;
15667;SDS011;7934;48.710;9.024;2023-04-07T00:35:28;14.23;;;11.88;;
15667;SDS011;7934;48.710;9.024;2023-04-07T00:37:55;13.75;;;12.32;;
15667;SDS011;7934;48.710;9.024;2023-04-07T00:40:24;16.70;;;12.55;;
15667;SDS011;7934;48.710;9.024;2023-04-07T00:42:51;14.20;;;11.80;;
15667;SDS011;7934;48.710;9.024;2023-04-07T00:45:19;13.43;;;12.00;;
15667;SDS011;7934;48.710;9.024;2023-04-07T00:47:46;14.40;;;12.35;;
15667;SDS011;7934;48.710;9.024;2023-04-07T00:50:13;14.23;;;12.32;;
15667;SDS011;7934;48.710;9.024;2023-04-07T00:52:40;15.25;;;12.63;;
15667;SDS011;7934;48.710;9.024;2023-04-07T00:55:08;13.07;;;11.77;;
15667;SDS011;7934;48.710;9.024;2023-04-07T00:57:36;18.58;;;12.48;;
15667;SDS011;7934;48.710;9.024;2023-04-07T01:00:04;15.48;;;12.60;;
15667;SDS011;7934;48.710;9.024;2023-04-07T01:02:32;14.52;;;12.35;;
15667;SDS011;7934;48.710;9.024;2023-04-07T01:05:04;13.90;;;12.20;;
15667;SDS011;7934;48.710;9.024;2023-04-07T01:07:33;14.13;;;12.52;;
15667;SDS011;7934;48.710;9.024;2023-04-07T01:10:05;17.58;;;12.20;;
15667;SDS011;7934;48.710;9.024;2023-04-07T01:12:34;15.50;;;12.23;;
15667;SDS011;7934;48.710;9.024;2023-04-07T01:15:06;15.43;;;12.82;;
15667;SDS011;7934;48.710;9.024;2023-04-07T01:17:33;14.05;;;12.55;;
15667;SDS011;7934;48.710;9.024;2023-04-07T01:20:02;14.15;;;12.65;;
15667;SDS011;7934;48.710;9.024;2023-04-07T01:22:32;14.68;;;11.95;;
15667;SDS011;7934;48.710;9.024;2023-04-07T01:27:48;15.40;;;12.32;;
15667;SDS011;7934;48.710;9.024;2023-04-07T01:30:22;14.70;;;12.55;;
15667;SDS011;7934;48.710;9.024;2023-04-07T01:32:51;13.88;;;12.45;;
15667;SDS011;7934;48.710;9.024;2023-04-07T01:35:18;12.80;;;11.50;;
15667;SDS011;7934;48.710;9.024;2023-04-07T01:37:47;14.45;;;12.93;;
15667;SDS011;7934;48.710;9.024;2023-04-07T01:40:15;14.30;;;12.77;;
15667;SDS011;7934;48.710;9.024;2023-04-07T01:42:43;13.50;;;11.82;;
15667;SDS011;7934;48.710;9.024;2023-04-07T01:45:11;15.00;;;12.02;;
15667;SDS011;7934;48.710;9.024;2023-04-07T01:47:41;12.80;;;11.43;;
15667;SDS011;7934;48.710;9.024;2023-04-07T01:50:09;13.45;;;11.93;;
15667;SDS011;7934;48.710;9.024;2023-04-07T01:52:37;14.85;;;11.77;;
15667;SDS011;7934;48.710;9.024;2023-04-07T01:55:05;13.23;;;11.93;;
15667;SDS011;7934;48.710;9.024;2023-04-07T01:57:33;16.00;;;11.73;;
15667;SDS011;7934;48.710;9.024;2023-04-07T02:00:00;13.10;;;11.65;;
15667;SDS011;7934;48.710;9.024;2023-04-07T02:02:28;12.68;;;11.38;;
15667;SDS011;7934;48.710;9.024;2023-04-07T02:04:57;13.82;;;11.25;;
15667;SDS011;7934;48.710;9.024;2023-04-07T02:07:28;12.45;;;11.27;;
15667;SDS011;7934;48.710;9.024;2023-04-07T02:09:57;13.23;;;11.48;;
15667;SDS011;7934;48.710;9.024;2023-04-07T02:12:26;13.57;;;11.45;;
15667;SDS011;7934;48.710;9.024;2023-04-07T02:14:54;13.82;;;11.57;;
15667;SDS011;7934;48.710;9.024;2023-04-07T02:17:22;12.57;;;11.25;;
15667;SDS011;7934;48.710;9.024;2023-04-07T02:19:51;12.48;;;11.18;;
15667;SDS011;7934;48.710;9.024;2023-04-07T02:22:20;13.43;;;11.23;;
15667;SDS011;7934;48.710;9.024;2023-04-07T02:24:47;12.75;;;11.05;;
15667;SDS011;7934;48.710;9.024;2023-04-07T02:27:14;12.48;;;11.18;;
15667;SDS011;7934;48.710;9.024;2023-04-07T02:29:41;12.80;;;11.50;;
15667;SDS011;7934;48.710;9.024;2023-04-07T02:32:09;12.43;;;10.52;;
15667;SDS011;7934;48.710;9.024;2023-04-07T02:34:36;11.98;;;10.73;;
15667;SDS011;7934;48.710;9.024;2023-04-07T02:37:03;12.18;;;10.93;;
15667;SDS011;7934;48.710;9.024;2023-04-07T02:39:31;12.07;;;10.88;;
15667;SDS011;7934;48.710;9.024;2023-04-07T02:41:58;11.05;;;9.63;;
15667;SDS011;7934;48.710;9.024;2023-04-07T02:44:26;11.95;;;10.63;;
15667;SDS011;7934;48.710;9.024;2023-04-07T02:46:53;12.38;;;10.27;;
15667;SDS011;7934;48.710;9.024;2023-04-07T02:49:20;11.77;;;10.57;;
15667;SDS011;7934;48.710;9.024;2023-04-07T02:51:47;12.43;;;11.23;;
15667;SDS011;7934;48.710;9.024;2023-04-07T02:54:14;13.25;;;10.90;;
15667;SDS011;7934;48.710;9.024;2023-04-07T02:56:43;13.45;;;11.32;;
15667;SDS011;7934;48.710;9.024;2023-04-07T02:59:10;12.48;;;10.93;;
15667;SDS011;7934;48.710;9.024;2023-04-07T03:01:37;12.67;;;11.37;;
15667;SDS011;7934;48.710;9.024;2023-04-07T03:04:04;12.70;;;11.40;;
15667;SDS011;7934;48.710;9.024;2023-04-07T03:06:31;12.80;;;11.43;;
15667;SDS011;7934;48.710;9.024;2023-04-07T03:08:58;12.90;;;11.60;;
15667;SDS011;7934;48.710;9.024;2023-04-07T03:11:25;12.88;;;11.52;;
15667;SDS011;7934;48.710;9.024;2023-04-07T03:13:54;13.52;;;11.52;;
15667;SDS011;7934;48.710;9.024;2023-04-07T03:16:21;13.48;;;11.68;;
15667;SDS011;7934;48.710;9.024;2023-04-07T03:18:48;12.10;;;10.90;;
15667;SDS011;7934;48.710;9.024;2023-04-07T03:21:15;13.43;;;12.07;;
15667;SDS011;7934;48.710;9.024;2023-04-07T03:23:42;14.02;;;12.10;;
15667;SDS011;7934;48.710;9.024;2023-04-07T03:26:09;12.55;;;11.30;;
15667;SDS011;7934;48.710;9.024;2023-04-07T03:28:36;13.05;;;11.63;;
15667;SDS011;7934;48.710;9.024;2023-04-07T03:31:05;12.05;;;10.80;;
15667;SDS011;7934;48.710;9.024;2023-04-07T03:33:32;12.90;;;11.60;;
15667;SDS011;7934;48.710;9.024;2023-04-07T03:35:59;12.52;;;11.32;;
15667;SDS011;7934;48.710;9.024;2023-04-07T03:38:27;13.13;;;11.70;;
15667;SDS011;7934;48.710;9.024;2023-04-07T03:40:54;13.15;;;11.68;;
15667;SDS011;7934;48.710;9.024;2023-04-07T03:43:21;17.52;;;11.50;;
15667;SDS011;7934;48.710;9.024;2023-04-07T03:45:48;14.38;;;11.98;;
15667;SDS011;7934;48.710;9.024;2023-04-07T03:48:17;12.15;;;11.05;;
15667;SDS011;7934;48.710;9.024;2023-04-07T03:50:44;12.90;;;11.38;;
15667;SDS011;7934;48.710;9.024;2023-04-07T03:53:11;13.77;;;11.45;;
15667;SDS011;7934;48.710;9.024;2023-04-07T03:55:40;12.98;;;11.68;;
15667;SDS011;7934;48.710;9.024;2023-04-07T03:58:07;13.63;;;11.90;;
15667;SDS011;7934;48.710;9.024;2023-04-07T04:00:35;12.60;;;11.35;;
15667;SDS011;7934;48.710;9.024;2023-04-07T04:03:02;13.55;;;12.05;;
15667;SDS011;7934;48.710;9.024;2023-04-07T04:05:30;13.43;;;11.43;;
15667;SDS011;7934;48.710;9.024;2023-04-07T04:07:58;13.02;;;11.40;;
15667;SDS011;7934;48.710;9.024;2023-04-07T04:10:25;13.73;;;11.98;;
15667;SDS011;7934;48.710;9.024;2023-04-07T04:12:52;13.18;;;11.82;;
15667;SDS011;7934;48.710;9.024;2023-04-07T04:15:19;14.70;;;12.05;;
15667;SDS011;7934;48.710;9.024;2023-04-07T04:17:46;13.18;;;11.82;;
15667;SDS011;7934;48.710;9.024;2023-04-07T04:20:14;13.35;;;11.52;;
15667;SDS011;7934;48.710;9.024;2023-04-07T04:22:42;13.27;;;11.75;;
15667;SDS011;7934;48.710;9.024;2023-04-07T04:25:10;15.07;;;12.10;;
15667;SDS011;7934;48.710;9.024;2023-04-07T04:27:37;15.65;;;12.68;;
15667;SDS011;7934;48.710;9.024;2023-04-07T04:30:04;15.02;;;12.18;;
15667;SDS011;7934;48.710;9.024;2023-04-07T04:32:32;13.55;;;12.15;;
15667;SDS011;7934;48.710;9.024;2023-04-07T04:34:59;14.35;;;12.18;;
15667;SDS011;7934;48.710;9.024;2023-04-07T04:37:26;13.55;;;12.13;;
15667;SDS011;7934;48.710;9.024;2023-04-07T04:39:55;14.07;;;12.65;;
15667;SDS011;7934;48.710;9.024;2023-04-07T04:42:22;13.90;;;12.43;;
15667;SDS011;7934;48.710;9.024;2023-04-07T04:44:50;14.88;;;13.13;;
15667;SDS011;7934;48.710;9.024;2023-04-07T04:47:18;13.68;;;12.10;;
15667;SDS011;7934;48.710;9.024;2023-04-07T04:49:45;15.32;;;12.23;;
15667;SDS011;7934;48.710;9.024;2023-04-07T04:52:12;13.80;;;12.40;;
15667;SDS011;7934;48.710;9.024;2023-04-07T04:54:39;16.10;;;12.90;;
15667;SDS011;7934;48.710;9.024;2023-04-07T04:57:08;14.25;;;12.48;;
15667;SDS011;7934;48.710;9.024;2023-04-07T04:59:35;13.98;;;11.82;;
15667;SDS011;7934;48.710;9.024;2023-04-07T05:02:02;13.07;;;11.77;;
15667;SDS011;7934;48.710;9.024;2023-04-07T05:04:29;13.25;;;11.85;;
15667;SDS011;7934;48.710;9.024;2023-04-07T05:06:56;13.00;;;11.70;;
15667;SDS011;7934;48.710;9.024;2023-04-07T05:09:23;13.55;;;12.20;;
15667;SDS011;7934;48.710;9.024;2023-04-07T05:11:51;14.05;;;12.55;;
15667;SDS011;7934;48.710;9.024;2023-04-07T05:14:19;13.47;;;12.07;;
15667;SDS011;7934;48.710;9.024;2023-04-07T05:16:46;13.47;;;12.10;;
15667;SDS011;7934;48.710;9.024;2023-04-07T05:19:14;14.40;;;12.90;;
15667;SDS011;7934;48.710;9.024;2023-04-07T05:21:41;14.65;;;12.10;;
15667;SDS011;7934;48.710;9.024;2023-04-07T05:24:08;13.55;;;12.15;;
15667;SDS011;7934;48.710;9.024;2023-04-07T05:26:35;13.00;;;11.70;;
15667;SDS011;7934;48.710;9.024;2023-04-07T05:29:02;13.38;;;11.98;;
15667;SDS011;7934;48.710;9.024;2023-04-07T05:31:31;13.60;;;12.20;;
15667;SDS011;7934;48.710;9.024;2023-04-07T05:34:00;14.50;;;12.25;;
15667;SDS011;7934;48.710;9.024;2023-04-07T05:36:27;13.82;;;12.25;;
15667;SDS011;7934;48.710;9.024;2023-04-07T05:38:55;13.43;;;11.88;;
15667;SDS011;7934;48.710;9.024;2023-04-07T05:41:22;13.70;;;11.50;;
15667;SDS011;7934;48.710;9.024;2023-04-07T05:43:53;13.00;;;11.70;;
15667;SDS011;7934;48.710;9.024;2023-04-07T05:46:20;13.17;;;11.73;;
15667;SDS011;7934;48.710;9.024;2023-04-07T05:48:48;13.98;;;11.75;;
15667;SDS011;7934;48.710;9.024;2023-04-07T05:51:16;14.60;;;11.65;;
15667;SDS011;7934;48.710;9.024;2023-04-07T05:53:43;12.55;;;11.25;;
15667;SDS011;7934;48.710;9.024;2023-04-07T05:56:10;12.88;;;11.02;;
15667;SDS011;7934;48.710;9.024;2023-04-07T05:58:37;14.10;;;11.48;;
15667;SDS011;7934;48.710;9.024;2023-04-07T06:01:04;12.55;;;11.35;;
15667;SDS011;7934;48.710;9.024;2023-04-07T06:03:40;13.65;;;12.18;;
15667;SDS011;7934;48.710;9.024;2023-04-07T06:06:08;13.38;;;11.50;;
15667;SDS011;7934;48.710;9.024;2023-04-07T06:08:36;12.15;;;10.80;;
15667;SDS011;7934;48.710;9.024;2023-04-07T06:11:03;12.85;;;11.32;;
15667;SDS011;7934;48.710;9.024;2023-04-07T06:13:30;13.13;;;11.68;;
15667;SDS011;7934;48.710;9.024;2023-04-07T06:15:57;12.02;;;10.73;;
15667;SDS011;7934;48.710;9.024;2023-04-07T06:18:26;11.63;;;10.13;;
15667;SDS011;7934;48.710;9.024;2023-04-07T06:20:53;12.85;;;11.63;;
15667;SDS011;7934;48.710;9.024;2023-04-07T06:23:22;13.43;;;11.00;;
15667;SDS011;7934;48.710;9.024;2023-04-07T06:25:49;12.10;;;10.77;;
15667;SDS011;7934;48.710;9.024;2023-04-07T06:28:17;14.55;;;10.75;;
15667;SDS011;7934;48.710;9.024;2023-04-07T06:30:45;11.77;;;10.57;;
15667;SDS011;7934;48.710;9.024;2023-04-07T06:33:12;11.87;;;10.43;;
15667;SDS011;7934;48.710;9.024;2023-04-07T06:35:39;11.90;;;10.20;;
15667;SDS011;7934;48.710;9.024;2023-04-07T06:38:06;12.10;;;10.90;;
15667;SDS011;7934;48.710;9.024;2023-04-07T06:40:36;12.05;;;10.85;;
15667;SDS011;7934;48.710;9.024;2023-04-07T06:43:03;11.50;;;10.23;;
15667;SDS011;7934;48.710;9.024;2023-04-07T06:45:31;11.15;;;10.05;;
15667;SDS011;7934;48.710;9.024;2023-04-07T06:47:58;15.98;;;10.80;;
15667;SDS011;7934;48.710;9.024;2023-04-07T06:50:25;10.80;;;9.70;;
15667;SDS011;7934;48.710;9.024;2023-04-07T06:52:52;11.10;;;9.90;;
15667;SDS011;7934;48.710;9.024;2023-04-07T06:55:19;10.87;;;9.77;;
15667;SDS011;7934;48.710;9.024;2023-04-07T06:57:48;10.70;;;9.65;;
15667;SDS011;7934;48.710;9.024;2023-04-07T07:00:16;11.63;;;9.57;;
15667;SDS011;7934;48.710;9.024;2023-04-07T07:02:44;11.63;;;10.25;;
15667;SDS011;7934;48.710;9.024;2023-04-07T07:05:11;11.30;;;10.10;;
15667;SDS011;7934;48.710;9.024;2023-04-07T07:07:38;11.20;;;10.10;;
15667;SDS011;7934;48.710;9.024;2023-04-07T07:10:05;11.02;;;10.00;;
15667;SDS011;7934;48.710;9.024;2023-04-07T07:12:32;10.23;;;9.33;;
15667;SDS011;7934;48.710;9.024;2023-04-07T07:15:01;10.82;;;9.93;;
15667;SDS011;7934;48.710;9.024;2023-04-07T07:17:28;11.48;;;10.30;;
15667;SDS011;7934;48.710;9.024;2023-04-07T07:19:55;10.00;;;9.02;;
15667;SDS011;7934;48.710;9.024;2023-04-07T07:22:22;10.40;;;9.35;;
15667;SDS011;7934;48.710;9.024;2023-04-07T07:24:50;10.07;;;9.07;;
15667;SDS011;7934;48.710;9.024;2023-04-07T07:27:17;9.45;;;8.57;;
15667;SDS011;7934;48.710;9.024;2023-04-07T07:29:44;9.55;;;8.60;;
15667;SDS011;7934;48.710;9.024;2023-04-07T07:32:15;9.38;;;8.57;;
15667;SDS011;7934;48.710;9.024;2023-04-07T07:34:42;8.88;;;8.07;;
15667;SDS011;7934;48.710;9.024;2023-04-07T07:37:09;9.25;;;8.30;;
15667;SDS011;7934;48.710;9.024;2023-04-07T07:39:37;10.25;;;7.78;;
15667;SDS011;7934;48.710;9.024;2023-04-07T07:42:04;8.30;;;7.60;;
15667;SDS011;7934;48.710;9.024;2023-04-07T07:44:31;8.77;;;7.55;;
15667;SDS011;7934;48.710;9.024;2023-04-07T07:46:58;7.53;;;7.00;;
15667;SDS011;7934;48.710;9.024;2023-04-07T07:49:26;7.65;;;6.95;;
15667;SDS011;7934;48.710;9.024;2023-04-07T07:51:54;6.85;;;6.35;;
15667;SDS011;7934;48.710;9.024;2023-04-07T07:54:21;6.95;;;6.35;;
15667;SDS011;7934;48.710;9.024;2023-04-07T07:56:48;6.80;;;6.20;;
15667;SDS011;7934;48.710;9.024;2023-04-07T07:59:16;6.60;;;5.97;;
15667;SDS011;7934;48.710;9.024;2023-04-07T08:01:49;6.22;;;5.78;;
15667;SDS011;7934;48.710;9.024;2023-04-07T08:04:16;5.90;;;5.40;;
15667;SDS011;7934;48.710;9.024;2023-04-07T08:06:46;5.90;;;4.80;;
15667;SDS011;7934;48.710;9.024;2023-04-07T08:09:13;5.30;;;4.90;;
15667;SDS011;7934;48.710;9.024;2023-04-07T08:11:40;5.25;;;4.80;;
15667;SDS011;7934;48.710;9.024;2023-04-07T08:14:07;5.55;;;5.03;;
15667;SDS011;7934;48.710;9.024;2023-04-07T08:16:34;5.07;;;3.95;;
15667;SDS011;7934;48.710;9.024;2023-04-07T08:19:02;3.97;;;3.58;;
15667;SDS011;7934;48.710;9.024;2023-04-07T08:21:29;4.72;;;3.97;;
15667;SDS011;7934;48.710;9.024;2023-04-07T08:23:58;4.07;;;3.75;;
15667;SDS011;7934;48.710;9.024;2023-04-07T08:26:27;4.40;;;4.00;;
15667;SDS011;7934;48.710;9.024;2023-04-07T08:28:55;5.28;;;3.53;;
15667;SDS011;7934;48.710;9.024;2023-04-07T08:31:25;3.60;;;3.25;;
15667;SDS011;7934;48.710;9.024;2023-04-07T08:33:53;3.70;;;3.40;;
15667;SDS011;7934;48.710;9.024;2023-04-07T08:36:22;4.40;;;3.20;;
15667;SDS011;7934;48.710;9.024;2023-04-07T08:38:49;5.03;;;3.47;;
15667;SDS011;7934;48.710;9.024;2023-04-07T08:41:19;3.97;;;3.50;;
15667;SDS011;7934;48.710;9.024;2023-04-07T08:43:48;5.10;;;3.30;;
15667;SDS011;7934;48.710;9.024;2023-04-07T08:46:16;4.97;;;3.03;;
15667;SDS011;7934;48.710;9.024;2023-04-07T08:48:45;4.40;;;3.33;;
15667;SDS011;7934;48.710;9.024;2023-04-07T08:51:14;4.30;;;3.17;;
15667;SDS011;7934;48.710;9.024;2023-04-07T08:53:47;4.57;;;3.08;;
15667;SDS011;7934;48.710;9.024;2023-04-07T08:56:23;3.75;;;3.40;;
15667;SDS011;7934;48.710;9.024;2023-04-07T08:58:54;3.47;;;3.13;;
15667;SDS011;7934;48.710;9.024;2023-04-07T09:01:21;3.30;;;3.00;;
15667;SDS011;7934;48.710;9.024;2023-04-07T09:03:48;7.07;;;3.37;;
15667;SDS011;7934;48.710;9.024;2023-04-07T09:06:17;3.67;;;3.03;;
15667;SDS011;7934;48.710;9.024;2023-04-07T09:08:55;4.47;;;3.20;;
15667;SDS011;7934;48.710;9.024;2023-04-07T09:11:24;3.38;;;2.90;;
15667;SDS011;7934;48.710;9.024;2023-04-07T09:13:51;3.25;;;2.88;;
15667;SDS011;7934;48.710;9.024;2023-04-07T09:16:19;5.63;;;3.00;;
15667;SDS011;7934;48.710;9.024;2023-04-07T09:18:49;3.65;;;2.90;;
15667;SDS011;7934;48.710;9.024;2023-04-07T09:21:22;4.00;;;2.77;;
15667;SDS011;7934;48.710;9.024;2023-04-07T09:23:53;3.70;;;2.70;;
15667;SDS011;7934;48.710;9.024;2023-04-07T09:26:21;2.97;;;2.55;;
15667;SDS011;7934;48.710;9.024;2023-04-07T09:28:53;3.00;;;2.63;;
15667;SDS011;7934;48.710;9.024;2023-04-07T09:31:21;3.03;;;2.72;;
15667;SDS011;7934;48.710;9.024;2023-04-07T09:33:50;4.57;;;3.22;;
15667;SDS011;7934;48.710;9.024;2023-04-07T09:36:17;4.60;;;3.23;;
15667;SDS011;7934;48.710;9.024;2023-04-07T09:38:45;5.10;;;3.30;;
15667;SDS011;7934;48.710;9.024;2023-04-07T09:41:13;5.70;;;3.20;;
15667;SDS011;7934;48.710;9.024;2023-04-07T09:43:40;4.38;;;3.00;;
15667;SDS011;7934;48.710;9.024;2023-04-07T09:46:15;3.88;;;3.00;;
15667;SDS011;7934;48.710;9.024;2023-04-07T09:49:01;2.95;;;2.75;;
15667;SDS011;7934;48.710;9.024;2023-04-07T09:51:58;3.88;;;2.97;;
15667;SDS011;7934;48.710;9.024;2023-04-07T09:57:48;5.25;;;2.95;;
15667;SDS011;7934;48.710;9.024;2023-04-07T10:00:19;4.43;;;2.78;;
15667;SDS011;7934;48.710;9.024;2023-04-07T10:02:48;4.50;;;3.47;;
15667;SDS011;7934;48.710;9.024;2023-04-07T10:05:17;3.67;;;3.25;;
15667;SDS011;7934;48.710;9.024;2023-04-07T10:07:49;5.03;;;3.55;;
15667;SDS011;7934;48.710;9.024;2023-04-07T10:10:16;5.78;;;3.88;;
15667;SDS011;7934;48.710;9.024;2023-04-07T10:12:43;4.50;;;3.65;;
15667;SDS011;7934;48.710;9.024;2023-04-07T10:15:24;4.50;;;4.10;;
15667;SDS011;7934;48.710;9.024;2023-04-07T10:18:07;4.55;;;3.88;;
15667;SDS011;7934;48.710;9.024;2023-04-07T10:20:35;4.68;;;3.97;;
15667;SDS011;7934;48.710;9.024;2023-04-07T10:23:06;6.07;;;4.60;;
15667;SDS011;7934;48.710;9.024;2023-04-07T10:25:35;5.97;;;4.73;;
15667;SDS011;7934;48.710;9.024;2023-04-07T10:28:05;5.85;;;4.68;;
15667;SDS011;7934;48.710;9.024;2023-04-07T10:30:34;6.05;;;4.93;;
15667;SDS011;7934;48.710;9.024;2023-04-07T10:33:03;6.05;;;5.10;;
15667;SDS011;7934;48.710;9.024;2023-04-07T10:35:38;6.57;;;5.00;;
15667;SDS011;7934;48.710;9.024;2023-04-07T10:38:25;5.43;;;5.03;;
15667;SDS011;7934;48.710;9.024;2023-04-07T10:40:53;7.45;;;5.60;;
15667;SDS011;7934;48.710;9.024;2023-04-07T10:43:35;8.75;;;5.60;;
15667;SDS011;7934;48.710;9.024;2023-04-07T10:46:02;10.10;;;6.30;;
15667;SDS011;7934;48.710;9.024;2023-04-07T10:48:29;7.97;;;6.00;;
15667;SDS011;7934;48.710;9.024;2023-04-07T10:51:12;8.20;;;5.93;;
15667;SDS011;7934;48.710;9.024;2023-04-07T10:59:13;6.75;;;5.82;;
15667;SDS011;7934;48.710;9.024;2023-04-07T11:01:40;8.43;;;6.13;;
15667;SDS011;7934;48.710;9.024;2023-04-07T11:04:08;7.40;;;5.85;;
15667;SDS011;7934;48.710;9.024;2023-04-07T11:06:37;11.20;;;5.90;;
15667;SDS011;7934;48.710;9.024;2023-04-07T11:09:17;7.97;;;5.97;;
15667;SDS011;7934;48.710;9.024;2023-04-07T11:11:45;8.98;;;6.65;;
15667;SDS011;7934;48.710;9.024;2023-04-07T11:14:23;10.57;;;6.72;;
15667;SDS011;7934;48.710;9.024;2023-04-07T11:16:51;8.80;;;5.97;;
15667;SDS011;7934;48.710;9.024;2023-04-07T11:19:18;11.30;;;7.30;;
15667;SDS011;7934;48.710;9.024;2023-04-07T11:21:47;11.55;;;9.40;;
15667;SDS011;7934;48.710;9.024;2023-04-07T11:26:56;8.52;;;5.70;;
15667;SDS011;7934;48.710;9.024;2023-04-07T11:29:26;7.53;;;5.30;;
15667;SDS011;7934;48.710;9.024;2023-04-07T11:31:54;10.43;;;6.53;;
15667;SDS011;7934;48.710;9.024;2023-04-07T11:34:23;9.25;;;5.93;;
15667;SDS011;7934;48.710;9.024;2023-04-07T11:36:56;9.07;;;5.90;;
15667;SDS011;7934;48.710;9.024;2023-04-07T11:39:25;6.55;;;5.38;;
15667;SDS011;7934;48.710;9.024;2023-04-07T11:41:55;10.40;;;5.90;;
15667;SDS011;7934;48.710;9.024;2023-04-07T11:44:22;10.10;;;6.10;;
15667;SDS011;7934;48.710;9.024;2023-04-07T11:46:53;6.43;;;5.35;;
15667;SDS011;7934;48.710;9.024;2023-04-07T11:49:21;8.67;;;5.77;;
15667;SDS011;7934;48.710;9.024;2023-04-07T11:51:57;9.13;;;6.15;;
15667;SDS011;7934;48.710;9.024;2023-04-07T11:54:24;8.55;;;6.13;;
15667;SDS011;7934;48.710;9.024;2023-04-07T11:56:52;8.75;;;5.75;;
15667;SDS011;7934;48.710;9.024;2023-04-07T11:59:21;8.38;;;6.07;;
15667;SDS011;7934;48.710;9.024;2023-04-07T12:01:48;7.65;;;5.03;;
15667;SDS011;7934;48.710;9.024;2023-04-07T12:04:16;10.23;;;6.43;;
15667;SDS011;7934;48.710;9.024;2023-04-07T12:06:44;8.10;;;5.43;;
15667;SDS011;7934;48.710;9.024;2023-04-07T12:09:25;8.63;;;5.13;;
15667;SDS011;7934;48.710;9.024;2023-04-07T12:11:53;6.97;;;4.70;;
15667;SDS011;7934;48.710;9.024;2023-04-07T12:14:21;8.73;;;5.10;;
15667;SDS011;7934;48.710;9.024;2023-04-07T12:16:48;7.75;;;5.00;;
15667;SDS011;7934;48.710;9.024;2023-04-07T12:19:16;5.70;;;5.00;;
15667;SDS011;7934;48.710;9.024;2023-04-07T12:21:44;10.35;;;5.68;;
15667;SDS011;7934;48.710;9.024;2023-04-07T12:24:11;7.50;;;4.50;;
15667;SDS011;7934;48.710;9.024;2023-04-07T12:26:40;9.98;;;5.85;;
15667;SDS011;7934;48.710;9.024;2023-04-07T12:29:07;7.38;;;5.75;;
15667;SDS011;7934;48.710;9.024;2023-04-07T12:31:34;10.32;;;6.97;;
15667;SDS011;7934;48.710;9.024;2023-04-07T12:34:01;8.05;;;6.55;;
15667;SDS011;7934;48.710;9.024;2023-04-07T12:36:30;8.43;;;5.77;;
15667;SDS011;7934;48.710;9.024;2023-04-07T12:38:57;7.45;;;5.90;;
15667;SDS011;7934;48.710;9.024;2023-04-07T12:41:25;6.70;;;5.45;;
15667;SDS011;7934;48.710;9.024;2023-04-07T12:43:56;9.53;;;5.60;;
15667;SDS011;7934;48.710;9.024;2023-04-07T12:46:23;9.18;;;6.13;;
15667;SDS011;7934;48.710;9.024;2023-04-07T12:48:50;9.60;;;7.22;;
15667;SDS011;7934;48.710;9.024;2023-04-07T12:51:18;8.52;;;7.50;;
15667;SDS011;7934;48.710;9.024;2023-04-07T12:53:45;12.18;;;7.90;;
15667;SDS011;7934;48.710;9.024;2023-04-07T12:56:12;8.30;;;7.40;;
15667;SDS011;7934;48.710;9.024;2023-04-07T12:58:39;12.50;;;7.75;;
15667;SDS011;7934;48.710;9.024;2023-04-07T13:01:09;7.82;;;6.13;;
15667;SDS011;7934;48.710;9.024;2023-04-07T13:03:37;6.93;;;5.82;;
15667;SDS011;7934;48.710;9.024;2023-04-07T13:06:04;9.02;;;5.82;;
15667;SDS011;7934;48.710;9.024;2023-04-07T13:08:31;7.97;;;6.72;;
15667;SDS011;7934;48.710;9.024;2023-04-07T13:10:58;7.53;;;6.80;;
15667;SDS011;7934;48.710;9.024;2023-04-07T13:13:26;8.07;;;6.38;;
15667;SDS011;7934;48.710;9.024;2023-04-07T13:15:53;6.78;;;5.40;;
15667;SDS011;7934;48.710;9.024;2023-04-07T13:18:23;7.93;;;6.10;;
15667;SDS011;7934;48.710;9.024;2023-04-07T13:20:51;6.00;;;5.35;;
15667;SDS011;7934;48.710;9.024;2023-04-07T13:23:18;5.85;;;4.47;;
15667;SDS011;7934;48.710;9.024;2023-04-07T13:25:45;5.63;;;4.53;;
15667;SDS011;7934;48.710;9.024;2023-04-07T13:28:14;6.45;;;3.92;;
15667;SDS011;7934;48.710;9.024;2023-04-07T13:30:42;3.97;;;3.60;;
15667;SDS011;7934;48.710;9.024;2023-04-07T13:33:09;6.10;;;3.95;;
15667;SDS011;7934;48.710;9.024;2023-04-07T13:35:38;4.47;;;3.83;;
15667;SDS011;7934;48.710;9.024;2023-04-07T13:38:05;5.32;;;4.78;;
15667;SDS011;7934;48.710;9.024;2023-04-07T13:40:33;6.15;;;4.80;;
15667;SDS011;7934;48.710;9.024;2023-04-07T13:43:00;5.80;;;4.57;;
15667;SDS011;7934;48.710;9.024;2023-04-07T13:45:27;7.77;;;5.07;;
15667;SDS011;7934;48.710;9.024;2023-04-07T13:47:54;8.05;;;6.70;;
15667;SDS011;7934;48.710;9.024;2023-04-07T13:50:22;6.10;;;5.27;;
15667;SDS011;7934;48.710;9.024;2023-04-07T13:52:51;7.53;;;5.78;;
15667;SDS011;7934;48.710;9.024;2023-04-07T13:55:19;9.50;;;6.72;;
15667;SDS011;7934;48.710;9.024;2023-04-07T13:57:46;10.82;;;8.65;;
15667;SDS011;7934;48.710;9.024;2023-04-07T14:00:13;8.93;;;6.40;;
15667;SDS011;7934;48.710;9.024;2023-04-07T14:02:41;7.63;;;5.72;;
15667;SDS011;7934;48.710;9.024;2023-04-07T14:05:09;6.93;;;5.80;;
15667;SDS011;7934;48.710;9.024;2023-04-07T14:07:36;6.93;;;5.40;;
15667;SDS011;7934;48.710;9.024;2023-04-07T14:10:08;6.15;;;5.55;;
15667;SDS011;7934;48.710;9.024;2023-04-07T14:12:35;6.23;;;5.53;;
15667;SDS011;7934;48.710;9.024;2023-04-07T14:15:02;8.15;;;5.85;;
15667;SDS011;7934;48.710;9.024;2023-04-07T14:17:30;7.47;;;5.28;;
15667;SDS011;7934;48.710;9.024;2023-04-07T14:19:57;7.93;;;5.30;;
15667;SDS011;7934;48.710;9.024;2023-04-07T14:22:25;8.05;;;5.82;;
15667;SDS011;7934;48.710;9.024;2023-04-07T14:24:52;6.32;;;5.47;;
15667;SDS011;7934;48.710;9.024;2023-04-07T14:27:20;7.57;;;5.77;;
15667;SDS011;7934;48.710;9.024;2023-04-07T14:29:47;7.53;;;6.20;;
15667;SDS011;7934;48.710;9.024;2023-04-07T14:32:15;9.65;;;6.90;;
15667;SDS011;7934;48.710;9.024;2023-04-07T14:34:42;8.18;;;6.28;;
15667;SDS011;7934;48.710;9.024;2023-04-07T14:37:09;8.32;;;6.40;;
15667;SDS011;7934;48.710;9.024;2023-04-07T14:39:38;12.02;;;8.07;;
15667;SDS011;7934;48.710;9.024;2023-04-07T14:42:06;8.05;;;6.15;;
15667;SDS011;7934;48.710;9.024;2023-04-07T14:44:35;7.97;;;6.27;;
15667;SDS011;7934;48.710;9.024;2023-04-07T14:47:02;7.25;;;5.78;;
15667;SDS011;7934;48.710;9.024;2023-04-07T14:49:29;10.07;;;7.07;;
15667;SDS011;7934;48.710;9.024;2023-04-07T14:51:57;8.90;;;6.03;;
15667;SDS011;7934;48.710;9.024;2023-04-07T14:54:24;8.80;;;5.93;;
15667;SDS011;7934;48.710;9.024;2023-04-07T14:56:51;7.22;;;5.90;;
15667;SDS011;7934;48.710;9.024;2023-04-07T14:59:20;6.45;;;5.78;;
15667;SDS011;7934;48.710;9.024;2023-04-07T15:01:48;6.30;;;5.68;;
15667;SDS011;7934;48.710;9.024;2023-04-07T15:04:15;10.48;;;6.60;;
15667;SDS011;7934;48.710;9.024;2023-04-07T15:06:42;7.40;;;6.28;;
15667;SDS011;7934;48.710;9.024;2023-04-07T15:09:10;6.67;;;6.07;;